createdAt,value
2022-10-06T00:00:47.215Z,3.85
2022-10-06T00:03:15.172Z,2.95
2022-10-06T00:05:43.246Z,3.30
2022-10-06T00:08:12.509Z,2.77
2022-10-06T00:10:40.365Z,2.25
2022-10-06T00:13:08.733Z,4.57
2022-10-06T00:15:36.776Z,2.75
2022-10-06T00:18:04.546Z,3.75
2022-10-06T00:20:33.247Z,3.60
2022-10-06T00:23:00.907Z,4.45
2022-10-06T00:25:30.093Z,3.63
2022-10-06T00:27:57.838Z,3.85
2022-10-06T00:30:27.713Z,6.20
2022-10-06T00:32:57.070Z,3.50
2022-10-06T00:35:25.451Z,6.43
2022-10-06T00:37:53.268Z,3.85
2022-10-06T00:40:21.127Z,4.85
2022-10-06T00:42:53.530Z,2.90
2022-10-06T00:45:26.344Z,5.13
2022-10-06T00:47:54.671Z,4.90
2022-10-06T00:50:22.408Z,4.47
2022-10-06T00:52:50.307Z,5.63
2022-10-06T00:55:20.218Z,6.57
2022-10-06T00:57:48.557Z,5.30
2022-10-06T01:00:17.890Z,5.07
2022-10-06T01:02:49.752Z,6.38
2022-10-06T01:05:19.766Z,7.37
2022-10-06T01:07:47.434Z,5.63
2022-10-06T01:10:15.086Z,5.55
2022-10-06T01:12:42.828Z,4.50
2022-10-06T01:15:11.245Z,4.93
2022-10-06T01:17:43.466Z,7.63
2022-10-06T01:20:12.929Z,6.28
2022-10-06T01:22:44.156Z,5.03
2022-10-06T01:25:14.077Z,4.78
2022-10-06T01:27:44.197Z,8.30
2022-10-06T01:30:15.884Z,5.78
2022-10-06T01:32:44.099Z,5.22
2022-10-06T01:35:12.407Z,3.88
2022-10-06T01:37:40.053Z,6.10
2022-10-06T01:40:10.074Z,7.22
2022-10-06T01:42:38.320Z,7.88
2022-10-06T01:45:06.674Z,8.57
2022-10-06T01:47:34.474Z,5.65
2022-10-06T01:50:02.252Z,6.30
2022-10-06T01:52:29.869Z,6.15
2022-10-06T01:54:57.792Z,8.17
2022-10-06T01:57:26.807Z,6.28
2022-10-06T01:59:55.061Z,8.05
2022-10-06T02:02:23.094Z,6.75
2022-10-06T02:04:50.778Z,7.38
2022-10-06T02:07:18.815Z,6.17
2022-10-06T02:09:46.414Z,6.60
2022-10-06T02:12:13.989Z,4.18
2022-10-06T02:14:43.013Z,6.75
2022-10-06T02:17:11.220Z,6.63
2022-10-06T02:19:38.877Z,6.80
2022-10-06T02:22:06.487Z,6.03
2022-10-06T02:24:34.178Z,8.65
2022-10-06T02:27:01.785Z,8.45
2022-10-06T02:29:29.399Z,7.90
2022-10-06T02:31:58.423Z,10.18
2022-10-06T02:34:26.134Z,6.15
2022-10-06T02:36:54.244Z,7.07
2022-10-06T02:39:21.905Z,6.65
2022-10-06T02:41:49.527Z,7.97
2022-10-06T02:44:17.131Z,8.82
2022-10-06T02:46:44.881Z,9.43
2022-10-06T02:49:14.402Z,5.65
2022-10-06T02:51:42.047Z,5.80
2022-10-06T02:54:09.936Z,5.88
2022-10-06T02:56:38.334Z,9.55
2022-10-06T02:59:05.930Z,8.77
2022-10-06T03:01:33.660Z,6.95
2022-10-06T03:04:01.582Z,6.47
2022-10-06T03:06:31.881Z,6.97
2022-10-06T03:09:00.857Z,8.65
2022-10-06T03:11:29.782Z,7.80
2022-10-06T03:13:57.499Z,8.75
2022-10-06T03:16:27.135Z,9.18
2022-10-06T03:18:55.934Z,12.10
2022-10-06T03:21:25.944Z,7.07
2022-10-06T03:23:56.499Z,7.50
2022-10-06T03:26:27.919Z,7.40
2022-10-06T03:28:55.737Z,8.40
2022-10-06T03:31:24.171Z,8.90
2022-10-06T03:33:52.178Z,8.77
2022-10-06T03:36:21.615Z,7.88
2022-10-06T03:38:49.383Z,5.30
2022-10-06T03:41:20.274Z,8.18
2022-10-06T03:43:49.347Z,8.07
2022-10-06T03:46:19.811Z,10.15
2022-10-06T03:48:48.678Z,7.32
2022-10-06T03:51:17.797Z,10.02
2022-10-06T03:53:46.725Z,8.52
2022-10-06T03:56:17.105Z,8.43
2022-10-06T03:58:47.715Z,8.32
2022-10-06T04:01:19.172Z,10.33
2022-10-06T04:03:49.846Z,6.95
2022-10-06T04:06:18.998Z,9.02
2022-10-06T04:08:47.841Z,8.35
2022-10-06T04:11:19.047Z,7.20
2022-10-06T04:13:48.753Z,8.82
2022-10-06T04:16:18.127Z,9.03
2022-10-06T04:18:46.879Z,8.30
2022-10-06T04:21:14.953Z,6.03
2022-10-06T04:23:42.784Z,7.47
2022-10-06T04:26:13.419Z,10.50
2022-10-06T04:28:42.239Z,8.15
2022-10-06T04:31:14.878Z,7.32
2022-10-06T04:33:42.649Z,10.63
2022-10-06T04:36:12.424Z,9.75
2022-10-06T04:38:40.074Z,8.70
2022-10-06T04:41:08.537Z,6.40
2022-10-06T04:43:36.372Z,5.97
2022-10-06T04:46:24.047Z,7.88
2022-10-06T04:48:54.885Z,9.35
2022-10-06T04:51:23.643Z,7.72
2022-10-06T04:53:51.470Z,5.88
2022-10-06T04:56:20.830Z,6.73
2022-10-06T04:58:49.729Z,5.78
2022-10-06T05:01:18.941Z,7.13
2022-10-06T05:03:47.334Z,8.97
2022-10-06T05:06:18.290Z,7.45
2022-10-06T05:08:48.977Z,8.50
2022-10-06T05:11:19.464Z,6.15
2022-10-06T05:13:50.331Z,8.75
2022-10-06T05:16:18.883Z,9.00
2022-10-06T05:18:46.589Z,8.10
2022-10-06T05:21:17.358Z,11.52
2022-10-06T05:23:45.891Z,9.63
2022-10-06T05:26:14.835Z,12.55
2022-10-06T05:28:42.562Z,14.30
2022-10-06T05:31:13.283Z,9.68
2022-10-06T05:33:41.403Z,11.13
2022-10-06T05:36:12.522Z,8.25
2022-10-06T05:38:41.995Z,11.17
2022-10-06T05:41:12.657Z,12.40
2022-10-06T05:43:40.912Z,9.52
2022-10-06T05:46:17.290Z,10.18
2022-10-06T05:48:47.516Z,9.45
2022-10-06T05:51:15.558Z,8.82
2022-10-06T05:53:44.577Z,10.97
2022-10-06T05:56:13.976Z,10.05
2022-10-06T05:58:42.944Z,13.57
2022-10-06T06:01:12.277Z,15.25
2022-10-06T06:03:40.809Z,11.47
2022-10-06T06:06:16.689Z,7.57
2022-10-06T06:08:46.267Z,11.20
2022-10-06T06:11:14.189Z,11.95
2022-10-06T06:13:41.868Z,7.68
2022-10-06T06:16:14.140Z,11.55
2022-10-06T06:18:41.981Z,10.48
2022-10-06T06:21:10.823Z,8.73
2022-10-06T06:23:39.685Z,9.03
2022-10-06T06:26:10.336Z,10.32
2022-10-06T06:28:38.393Z,8.57
2022-10-06T06:31:08.128Z,10.38
2022-10-06T06:33:37.668Z,8.57
2022-10-06T06:36:13.483Z,10.27
2022-10-06T06:38:41.092Z,9.82
2022-10-06T06:41:16.249Z,9.53
2022-10-06T06:43:43.880Z,8.83
2022-10-06T06:46:11.737Z,8.27
2022-10-06T06:48:39.483Z,10.23
2022-10-06T06:51:07.461Z,9.32
2022-10-06T06:53:35.793Z,9.80
2022-10-06T06:56:04.045Z,9.63
2022-10-06T06:58:33.549Z,10.77
2022-10-06T07:01:08.685Z,9.00
2022-10-06T07:03:56.683Z,12.97
2022-10-06T07:06:28.148Z,7.75
2022-10-06T07:08:56.795Z,9.05
2022-10-06T07:11:25.704Z,10.38
2022-10-06T07:13:55.936Z,8.98
2022-10-06T07:16:41.768Z,8.98
2022-10-06T07:19:28.864Z,9.07
2022-10-06T07:22:16.008Z,11.13
2022-10-06T07:25:01.802Z,11.98
2022-10-06T07:27:29.929Z,10.15
2022-10-06T07:29:58.938Z,9.32
2022-10-06T07:32:29.512Z,8.05
2022-10-06T07:34:58.141Z,8.75
2022-10-06T07:37:26.484Z,11.40
2022-10-06T07:39:54.168Z,9.75
2022-10-06T07:42:21.953Z,9.93
2022-10-06T07:45:09.674Z,9.88
2022-10-06T07:47:38.876Z,10.95
2022-10-06T07:50:07.340Z,10.00
2022-10-06T07:52:39.189Z,11.93
2022-10-06T07:55:07.897Z,6.90
2022-10-06T07:57:35.776Z,8.35
2022-10-06T08:00:05.669Z,9.07
2022-10-06T08:02:35.770Z,8.80
2022-10-06T08:05:06.656Z,7.32
2022-10-06T08:07:34.270Z,10.60
2022-10-06T08:10:01.947Z,9.73
2022-10-06T08:12:37.503Z,14.95
2022-10-06T08:15:07.528Z,10.35
2022-10-06T08:17:36.246Z,8.68
2022-10-06T08:20:09.231Z,10.43
2022-10-06T08:22:38.683Z,11.23
2022-10-06T08:25:07.613Z,6.00
2022-10-06T08:27:36.104Z,7.55
2022-10-06T08:30:04.680Z,10.90
2022-10-06T08:32:32.917Z,12.98
2022-10-06T08:35:00.544Z,10.88
2022-10-06T08:37:29.584Z,9.30
2022-10-06T08:39:57.529Z,9.90
2022-10-06T08:42:32.944Z,9.95
2022-10-06T08:45:02.611Z,10.35
2022-10-06T08:47:33.512Z,8.68
2022-10-06T08:50:01.432Z,8.20
2022-10-06T08:52:49.309Z,8.63
2022-10-06T08:55:30.654Z,10.55
2022-10-06T08:58:19.509Z,12.77
2022-10-06T09:00:47.152Z,9.83
2022-10-06T09:03:23.099Z,9.55
2022-10-06T09:05:53.136Z,9.10
2022-10-06T09:08:35.597Z,9.97
2022-10-06T09:11:15.223Z,7.68
2022-10-06T09:13:45.499Z,8.40
2022-10-06T09:16:16.924Z,8.05
2022-10-06T09:19:07.290Z,8.13
2022-10-06T09:21:39.730Z,7.68
2022-10-06T09:24:13.883Z,9.48
2022-10-06T09:26:45.365Z,8.00
2022-10-06T09:29:13.913Z,10.50
2022-10-06T09:31:43.083Z,8.33
2022-10-06T09:34:19.783Z,10.37
2022-10-06T09:37:07.442Z,9.90
2022-10-06T09:39:38.326Z,7.65
2022-10-06T09:42:14.550Z,9.30
2022-10-06T09:44:53.586Z,10.07
2022-10-06T09:47:40.935Z,6.03
2022-10-06T09:50:20.430Z,7.95
2022-10-06T09:53:06.899Z,5.63
2022-10-06T09:55:45.585Z,9.13
2022-10-06T09:58:21.004Z,8.10
2022-10-06T10:00:50.317Z,9.15
2022-10-06T10:03:18.111Z,8.60
2022-10-06T10:05:48.804Z,7.15
2022-10-06T10:08:23.211Z,6.20
2022-10-06T10:11:32.204Z,4.73
2022-10-06T10:14:00.395Z,6.70
2022-10-06T10:16:30.888Z,8.15
2022-10-06T10:19:00.106Z,6.10
2022-10-06T10:21:30.257Z,8.85
2022-10-06T10:23:58.983Z,4.88
2022-10-06T10:26:39.613Z,7.78
2022-10-06T10:29:18.687Z,5.65
2022-10-06T10:31:54.678Z,4.78
2022-10-06T10:34:38.212Z,5.05
2022-10-06T10:37:10.240Z,7.30
2022-10-06T10:39:41.528Z,4.93
2022-10-06T10:42:15.975Z,6.70
2022-10-06T10:44:49.687Z,5.45
2022-10-06T10:47:22.261Z,5.88
2022-10-06T10:49:54.780Z,7.70
2022-10-06T10:52:27.384Z,6.55
2022-10-06T10:55:04.899Z,4.82
2022-10-06T10:57:38.519Z,5.90
2022-10-06T11:00:09.439Z,6.70
2022-10-06T11:02:38.330Z,5.20
2022-10-06T11:05:15.273Z,5.97
2022-10-06T11:07:47.029Z,4.95
2022-10-06T11:10:18.858Z,6.28
2022-10-06T11:13:07.681Z,7.67
2022-10-06T11:15:45.818Z,6.45
2022-10-06T11:18:25.737Z,11.40
2022-10-06T11:20:55.167Z,4.75
2022-10-06T11:23:30.398Z,4.57
2022-10-06T11:26:07.207Z,6.50
2022-10-06T11:28:41.602Z,5.60
2022-10-06T11:31:21.796Z,6.25
2022-10-06T11:33:52.943Z,5.90
2022-10-06T11:36:29.808Z,5.47
2022-10-06T11:39:03.481Z,6.53
2022-10-06T11:41:34.859Z,5.83
2022-10-06T11:44:07.910Z,5.13
2022-10-06T11:46:42.619Z,6.60
2022-10-06T11:49:55.938Z,5.28
2022-10-06T11:52:50.957Z,5.57
2022-10-06T11:55:23.942Z,6.05
2022-10-06T11:58:37.394Z,5.00
2022-10-06T12:01:02.453Z,4.35
2022-10-06T12:03:48.480Z,6.23
2022-10-06T12:07:07.054Z,6.40
2022-10-06T12:09:46.075Z,3.97
2022-10-06T12:13:06.098Z,3.67
2022-10-06T12:18:57.963Z,5.28
2022-10-06T12:21:35.098Z,7.13
2022-10-06T12:24:17.294Z,5.22
2022-10-06T12:26:52.874Z,5.18
2022-10-06T12:29:34.483Z,7.65
2022-10-06T12:32:13.071Z,3.70
2022-10-06T12:34:58.985Z,3.58
2022-10-06T12:37:42.525Z,3.95
2022-10-06T12:40:46.605Z,5.97
2022-10-06T12:43:56.974Z,4.72
2022-10-06T12:46:45.711Z,4.25
2022-10-06T12:49:31.859Z,4.82
2022-10-06T12:52:11.350Z,3.67
2022-10-06T12:54:44.655Z,4.30
2022-10-06T12:57:18.590Z,5.70
2022-10-06T12:59:46.379Z,4.80
2022-10-06T13:02:19.023Z,4.32
2022-10-06T13:04:50.656Z,5.95
2022-10-06T13:07:20.629Z,7.73
2022-10-06T13:09:50.034Z,4.93
2022-10-06T13:12:23.416Z,6.38
2022-10-06T13:15:15.625Z,4.77
2022-10-06T13:17:44.996Z,4.07
2022-10-06T13:20:39.242Z,9.87
2022-10-06T13:23:28.614Z,7.23
2022-10-06T13:25:58.652Z,4.13
2022-10-06T13:28:29.204Z,4.03
2022-10-06T13:30:58.668Z,7.30
2022-10-06T13:33:28.455Z,6.40
2022-10-06T13:35:56.719Z,5.53
2022-10-06T13:38:25.827Z,4.50
2022-10-06T13:41:07.904Z,8.75
2022-10-06T13:43:46.240Z,4.05
2022-10-06T13:46:15.921Z,4.75
2022-10-06T13:48:45.853Z,7.13
2022-10-06T13:51:18.366Z,5.60
2022-10-06T13:53:48.409Z,4.63
2022-10-06T13:56:37.169Z,3.65
2022-10-06T13:59:29.474Z,4.85
2022-10-06T14:01:57.471Z,3.88
2022-10-06T14:04:25.144Z,5.22
2022-10-06T14:06:54.903Z,6.50
2022-10-06T14:09:26.267Z,6.37
2022-10-06T14:11:55.150Z,3.70
2022-10-06T14:14:22.742Z,4.68
2022-10-06T14:16:52.642Z,4.40
2022-10-06T14:19:45.246Z,3.30
2022-10-06T14:22:30.918Z,5.13
2022-10-06T14:24:59.895Z,3.47
2022-10-06T14:27:27.560Z,4.32
2022-10-06T14:29:57.514Z,5.47
2022-10-06T14:32:25.336Z,3.80
2022-10-06T14:34:53.143Z,4.13
2022-10-06T14:37:20.792Z,5.50
2022-10-06T14:39:51.502Z,5.13
2022-10-06T14:42:24.340Z,4.10
2022-10-06T14:44:52.080Z,3.73
2022-10-06T14:47:19.779Z,4.60
2022-10-06T14:49:48.037Z,6.07
2022-10-06T14:52:15.693Z,4.53
2022-10-06T14:54:43.695Z,6.70
2022-10-06T14:57:11.358Z,4.93
2022-10-06T14:59:40.404Z,6.32
2022-10-06T15:02:08.053Z,4.43
2022-10-06T15:04:35.670Z,4.80
2022-10-06T15:07:23.346Z,4.03
2022-10-06T15:09:50.999Z,3.55
2022-10-06T15:12:18.817Z,3.95
2022-10-06T15:14:47.826Z,7.85
2022-10-06T15:17:15.457Z,3.30
2022-10-06T15:19:43.098Z,4.10
2022-10-06T15:22:10.767Z,2.72
2022-10-06T15:24:38.655Z,2.92
2022-10-06T15:27:25.043Z,3.95
2022-10-06T15:29:54.292Z,5.72
2022-10-06T15:32:22.454Z,5.20
2022-10-06T15:34:51.847Z,4.53
2022-10-06T15:37:19.979Z,3.67
2022-10-06T15:39:47.899Z,4.38
2022-10-06T15:42:18.655Z,5.68
2022-10-06T15:44:46.432Z,4.70
2022-10-06T15:47:15.466Z,4.70
2022-10-06T15:49:43.086Z,2.75
2022-10-06T15:52:12.875Z,4.97
2022-10-06T15:54:41.670Z,5.70
2022-10-06T15:57:15.068Z,3.28
2022-10-06T15:59:45.764Z,4.33
2022-10-06T16:02:16.780Z,3.58
2022-10-06T16:04:57.427Z,4.25
2022-10-06T16:07:25.040Z,4.20
2022-10-06T16:09:52.905Z,2.63
2022-10-06T16:12:22.319Z,3.72
2022-10-06T16:14:50.286Z,3.70
2022-10-06T16:17:19.637Z,5.20
2022-10-06T16:19:47.619Z,3.50
2022-10-06T16:22:16.741Z,3.13
2022-10-06T16:24:44.397Z,6.03
2022-10-06T16:27:12.860Z,3.33
2022-10-06T16:29:40.530Z,3.38
2022-10-06T16:32:08.197Z,3.70
2022-10-06T16:34:37.389Z,4.00
2022-10-06T16:37:04.982Z,3.70
2022-10-06T16:39:32.588Z,4.10
2022-10-06T16:42:00.215Z,5.35
2022-10-06T16:44:27.914Z,4.40
2022-10-06T16:46:55.573Z,3.67
2022-10-06T16:49:24.636Z,3.45
2022-10-06T16:51:53.960Z,3.83
2022-10-06T16:54:21.774Z,6.15
2022-10-06T16:56:52.032Z,5.38
2022-10-06T16:59:21.027Z,3.75
2022-10-06T17:01:49.720Z,5.60
2022-10-06T17:06:39.160Z,7.40
2022-10-06T17:09:08.482Z,7.88
2022-10-06T17:11:36.738Z,8.02
2022-10-06T17:14:05.037Z,9.25
2022-10-06T17:16:35.244Z,6.72
2022-10-06T17:19:03.337Z,7.18
2022-10-06T17:21:48.761Z,7.88
2022-10-06T17:24:19.830Z,6.07
2022-10-06T17:26:49.464Z,5.60
2022-10-06T17:31:41.513Z,2.47
2022-10-06T17:34:11.349Z,5.75
2022-10-06T17:36:39.862Z,4.57
2022-10-06T17:39:09.100Z,3.28
2022-10-06T17:41:39.330Z,5.43
2022-10-06T17:44:08.728Z,6.85
2022-10-06T17:46:40.267Z,7.65
2022-10-06T17:49:09.539Z,9.63
2022-10-06T17:51:40.180Z,6.60
2022-10-06T17:54:12.510Z,8.80
2022-10-06T17:56:40.812Z,7.82
2022-10-06T17:59:11.891Z,10.68
2022-10-06T18:01:41.413Z,29.13
2022-10-06T18:04:09.074Z,60.70
2022-10-06T18:06:37.199Z,109.15
2022-10-06T18:09:06.739Z,140.13
2022-10-06T18:11:35.710Z,124.75
2022-10-06T18:14:05.117Z,67.35
2022-10-06T18:16:36.505Z,55.33
2022-10-06T18:19:07.561Z,36.50
2022-10-06T18:21:37.364Z,31.52
2022-10-06T18:24:06.095Z,22.13
2022-10-06T18:26:36.039Z,15.60
2022-10-06T18:29:03.773Z,16.05
2022-10-06T18:31:31.597Z,15.07
2022-10-06T18:36:50.575Z,9.40
2022-10-06T18:39:18.339Z,9.35
2022-10-06T18:41:46.334Z,12.02
2022-10-06T18:44:14.034Z,10.40
2022-10-06T18:46:55.574Z,11.07
2022-10-06T18:49:25.314Z,7.87
2022-10-06T18:51:58.267Z,8.13
2022-10-06T18:54:30.178Z,7.85
2022-10-06T18:56:58.131Z,11.02
2022-10-06T18:59:27.339Z,10.73
2022-10-06T19:01:56.664Z,10.27
2022-10-06T19:04:25.035Z,12.80
2022-10-06T19:06:56.421Z,13.60
2022-10-06T19:09:25.428Z,11.25
2022-10-06T19:11:55.807Z,11.13
2022-10-06T19:14:25.506Z,8.95
2022-10-06T19:16:56.247Z,10.18
2022-10-06T19:19:26.411Z,9.88
2022-10-06T19:21:59.357Z,6.53
2022-10-06T19:24:29.272Z,7.72
2022-10-06T19:26:57.459Z,7.05
2022-10-06T19:29:26.826Z,7.95
2022-10-06T19:31:56.783Z,6.43
2022-10-06T19:34:25.140Z,5.53
2022-10-06T19:36:53.891Z,6.07
2022-10-06T19:39:24.162Z,17.35
2022-10-06T19:42:09.245Z,17.50
2022-10-06T19:44:42.590Z,9.40
2022-10-06T19:47:12.657Z,10.07
2022-10-06T19:49:40.315Z,11.23
2022-10-06T19:52:10.275Z,11.43
2022-10-06T19:54:39.914Z,10.93
2022-10-06T19:57:08.984Z,20.25
2022-10-06T19:59:36.610Z,19.67
2022-10-06T20:02:05.573Z,15.55
2022-10-06T20:04:33.377Z,16.10
2022-10-06T20:07:01.840Z,10.23
2022-10-06T20:09:31.799Z,9.48
2022-10-06T20:12:02.205Z,8.80
2022-10-06T20:14:30.313Z,12.00
2022-10-06T20:16:58.185Z,13.63
2022-10-06T20:19:26.215Z,17.42
2022-10-06T20:21:54.141Z,12.02
2022-10-06T20:24:23.478Z,11.98
2022-10-06T20:26:51.968Z,8.90
2022-10-06T20:29:22.848Z,9.32
2022-10-06T20:31:52.245Z,8.43
2022-10-06T20:34:21.846Z,10.13
2022-10-06T20:36:55.356Z,7.75
2022-10-06T20:39:41.766Z,8.20
2022-10-06T20:42:14.848Z,8.38
2022-10-06T20:44:45.125Z,7.18
2022-10-06T20:47:13.384Z,8.90
2022-10-06T20:49:42.553Z,6.85
2022-10-06T20:52:10.710Z,7.28
2022-10-06T20:57:09.287Z,6.95
2022-10-06T20:59:37.733Z,8.00
2022-10-06T21:02:06.699Z,7.43
2022-10-06T21:04:34.949Z,7.22
2022-10-06T21:07:03.952Z,5.85
2022-10-06T21:09:31.600Z,6.47
2022-10-06T21:11:59.307Z,6.88
2022-10-06T21:14:29.383Z,8.37
2022-10-06T21:16:56.976Z,8.50
2022-10-06T21:19:25.117Z,7.60
2022-10-06T21:21:55.803Z,8.13
2022-10-06T21:24:23.406Z,6.47
2022-10-06T21:26:52.575Z,6.13
2022-10-06T21:29:20.431Z,6.45
2022-10-06T21:31:49.544Z,7.20
2022-10-06T21:34:17.362Z,5.32
2022-10-06T21:36:45.252Z,6.72
2022-10-06T21:39:13.830Z,6.43
2022-10-06T21:41:41.908Z,4.72
2022-10-06T21:44:10.957Z,5.63
2022-10-06T21:46:40.394Z,5.97
2022-10-06T21:49:11.598Z,5.47
2022-10-06T21:51:39.817Z,5.82
2022-10-06T21:54:07.672Z,5.53
2022-10-06T21:56:35.359Z,5.97
2022-10-06T21:59:03.753Z,6.35
2022-10-06T22:01:32.903Z,8.50
2022-10-06T22:04:01.525Z,7.03
2022-10-06T22:06:31.451Z,4.95
2022-10-06T22:08:59.676Z,6.82
2022-10-06T22:11:28.529Z,6.25
2022-10-06T22:13:57.311Z,5.90
2022-10-06T22:16:26.389Z,5.47
2022-10-06T22:18:54.472Z,7.85
2022-10-06T22:21:23.551Z,5.68
2022-10-06T22:23:56.675Z,5.70
2022-10-06T22:26:25.677Z,5.35
2022-10-06T22:28:54.593Z,5.03
2022-10-06T22:31:25.970Z,5.50
2022-10-06T22:33:55.606Z,6.30
2022-10-06T22:36:23.694Z,5.70
2022-10-06T22:38:51.419Z,7.43
2022-10-06T22:41:20.609Z,5.85
2022-10-06T22:43:48.386Z,5.07
2022-10-06T22:46:16.512Z,5.93
2022-10-06T22:48:44.219Z,4.78
2022-10-06T22:51:11.837Z,4.53
2022-10-06T22:53:39.409Z,4.95
2022-10-06T22:56:07.347Z,6.30
2022-10-06T22:58:36.759Z,5.40
2022-10-06T23:01:10.507Z,5.03
2022-10-06T23:03:38.399Z,3.90
2022-10-06T23:06:08.448Z,7.00
2022-10-06T23:08:36.083Z,5.40
2022-10-06T23:11:07.977Z,4.82
2022-10-06T23:13:37.005Z,5.45
2022-10-06T23:16:07.923Z,5.43
2022-10-06T23:18:37.195Z,6.05
2022-10-06T23:21:05.698Z,4.07
2022-10-06T23:23:33.804Z,11.55
2022-10-06T23:26:06.628Z,4.13
2022-10-06T23:28:34.549Z,6.78
2022-10-06T23:31:04.758Z,4.43
2022-10-06T23:33:33.266Z,6.65
2022-10-06T23:36:02.152Z,4.33
2022-10-06T23:38:29.961Z,5.35
2022-10-06T23:40:57.766Z,6.50
2022-10-06T23:43:25.454Z,4.77
2022-10-06T23:45:53.320Z,5.63
2022-10-06T23:48:22.403Z,4.50
2022-10-06T23:50:57.725Z,3.53
2022-10-06T23:53:25.427Z,5.45
2022-10-06T23:55:53.056Z,4.28
2022-10-06T23:58:22.492Z,6.22
